sensor_id;sensor_type;location;lat;lon;timestamp;P1;durP1;ratioP1;P2;durP2;ratioP2
45049;SDS011;61798;48.048;-1.928;2022-12-18T00:01:56;48.95;;;24.85;;
45049;SDS011;61798;48.048;-1.928;2022-12-18T00:05:16;49.40;;;26.23;;
45049;SDS011;61798;48.048;-1.928;2022-12-18T00:09:11;47.75;;;24.42;;
45049;SDS011;61798;48.048;-1.928;2022-12-18T00:12:46;46.38;;;25.33;;
45049;SDS011;61798;48.048;-1.928;2022-12-18T00:19:14;46.17;;;24.95;;
45049;SDS011;61798;48.048;-1.928;2022-12-18T00:25:49;47.15;;;25.58;;
45049;SDS011;61798;48.048;-1.928;2022-12-18T00:28:33;47.13;;;26.58;;
45049;SDS011;61798;48.048;-1.928;2022-12-18T00:31:29;46.33;;;25.15;;
45049;SDS011;61798;48.048;-1.928;2022-12-18T00:34:45;50.15;;;25.75;;
45049;SDS011;61798;48.048;-1.928;2022-12-18T00:37:26;56.05;;;27.48;;
45049;SDS011;61798;48.048;-1.928;2022-12-18T00:40:49;48.45;;;26.05;;
45049;SDS011;61798;48.048;-1.928;2022-12-18T00:44:16;58.25;;;27.80;;
45049;SDS011;61798;48.048;-1.928;2022-12-18T00:47:20;52.05;;;26.55;;
45049;SDS011;61798;48.048;-1.928;2022-12-18T00:57:27;53.13;;;27.85;;
45049;SDS011;61798;48.048;-1.928;2022-12-18T01:00:47;57.15;;;28.00;;
45049;SDS011;61798;48.048;-1.928;2022-12-18T01:07:56;50.75;;;25.83;;
45049;SDS011;61798;48.048;-1.928;2022-12-18T01:14:30;48.55;;;25.05;;
45049;SDS011;61798;48.048;-1.928;2022-12-18T01:17:32;62.92;;;31.48;;
45049;SDS011;61798;48.048;-1.928;2022-12-18T01:19:38;84.30;;;38.95;;
45049;SDS011;61798;48.048;-1.928;2022-12-18T01:21:45;123.32;;;52.83;;
45049;SDS011;61798;48.048;-1.928;2022-12-18T01:23:55;66.03;;;32.75;;
45049;SDS011;61798;48.048;-1.928;2022-12-18T01:26:07;83.55;;;39.30;;
45049;SDS011;61798;48.048;-1.928;2022-12-18T01:28:17;111.05;;;47.13;;
45049;SDS011;61798;48.048;-1.928;2022-12-18T01:30:25;121.30;;;50.03;;
45049;SDS011;61798;48.048;-1.928;2022-12-18T01:32:33;127.10;;;51.72;;
45049;SDS011;61798;48.048;-1.928;2022-12-18T01:34:40;77.32;;;37.05;;
45049;SDS011;61798;48.048;-1.928;2022-12-18T01:36:48;66.13;;;32.70;;
45049;SDS011;61798;48.048;-1.928;2022-12-18T01:38:55;64.57;;;32.95;;
45049;SDS011;61798;48.048;-1.928;2022-12-18T01:41:03;56.00;;;27.98;;
45049;SDS011;61798;48.048;-1.928;2022-12-18T01:43:10;70.10;;;34.13;;
45049;SDS011;61798;48.048;-1.928;2022-12-18T01:45:22;59.17;;;30.35;;
45049;SDS011;61798;48.048;-1.928;2022-12-18T01:50:03;69.00;;;33.95;;
45049;SDS011;61798;48.048;-1.928;2022-12-18T01:52:14;49.60;;;26.83;;
45049;SDS011;61798;48.048;-1.928;2022-12-18T01:54:22;55.53;;;28.92;;
45049;SDS011;61798;48.048;-1.928;2022-12-18T01:56:29;54.67;;;29.35;;
45049;SDS011;61798;48.048;-1.928;2022-12-18T01:58:47;53.75;;;28.33;;
45049;SDS011;61798;48.048;-1.928;2022-12-18T02:00:56;49.72;;;27.23;;
45049;SDS011;61798;48.048;-1.928;2022-12-18T02:03:03;57.28;;;29.85;;
45049;SDS011;61798;48.048;-1.928;2022-12-18T02:05:11;51.78;;;28.27;;
45049;SDS011;61798;48.048;-1.928;2022-12-18T02:15:07;50.53;;;26.13;;
45049;SDS011;61798;48.048;-1.928;2022-12-18T02:27:59;45.63;;;24.65;;
45049;SDS011;61798;48.048;-1.928;2022-12-18T02:30:09;45.25;;;24.65;;
45049;SDS011;61798;48.048;-1.928;2022-12-18T02:32:20;54.65;;;28.13;;
45049;SDS011;61798;48.048;-1.928;2022-12-18T02:34:32;52.67;;;26.23;;
45049;SDS011;61798;48.048;-1.928;2022-12-18T02:36:43;46.63;;;25.10;;
45049;SDS011;61798;48.048;-1.928;2022-12-18T02:38:53;44.05;;;24.60;;
45049;SDS011;61798;48.048;-1.928;2022-12-18T02:41:05;45.55;;;24.98;;
45049;SDS011;61798;48.048;-1.928;2022-12-18T02:43:13;51.72;;;26.67;;
45049;SDS011;61798;48.048;-1.928;2022-12-18T02:45:22;47.25;;;26.63;;
45049;SDS011;61798;48.048;-1.928;2022-12-18T02:47:31;52.85;;;27.52;;
45049;SDS011;61798;48.048;-1.928;2022-12-18T02:57:27;45.28;;;24.98;;
45049;SDS011;61798;48.048;-1.928;2022-12-18T03:00:08;43.42;;;24.88;;
45049;SDS011;61798;48.048;-1.928;2022-12-18T03:02:33;42.10;;;24.02;;
45049;SDS011;61798;48.048;-1.928;2022-12-18T03:04:50;43.55;;;25.27;;
45049;SDS011;61798;48.048;-1.928;2022-12-18T03:07:09;49.78;;;24.98;;
45049;SDS011;61798;48.048;-1.928;2022-12-18T03:09:32;43.83;;;24.67;;
45049;SDS011;61798;48.048;-1.928;2022-12-18T03:12:35;52.80;;;26.05;;
45049;SDS011;61798;48.048;-1.928;2022-12-18T03:14:40;49.42;;;26.02;;
45049;SDS011;61798;48.048;-1.928;2022-12-18T03:16:49;54.85;;;29.23;;
45049;SDS011;61798;48.048;-1.928;2022-12-18T03:19:08;51.17;;;27.48;;
45049;SDS011;61798;48.048;-1.928;2022-12-18T03:21:23;57.30;;;29.85;;
45049;SDS011;61798;48.048;-1.928;2022-12-18T03:23:46;44.45;;;25.70;;
45049;SDS011;61798;48.048;-1.928;2022-12-18T03:25:57;48.70;;;26.55;;
45049;SDS011;61798;48.048;-1.928;2022-12-18T03:28:07;49.88;;;27.58;;
45049;SDS011;61798;48.048;-1.928;2022-12-18T03:30:18;51.17;;;28.33;;
45049;SDS011;61798;48.048;-1.928;2022-12-18T03:32:28;46.67;;;26.40;;
45049;SDS011;61798;48.048;-1.928;2022-12-18T03:34:39;45.85;;;26.95;;
45049;SDS011;61798;48.048;-1.928;2022-12-18T03:36:49;52.75;;;26.35;;
45049;SDS011;61798;48.048;-1.928;2022-12-18T03:38:56;49.58;;;26.75;;
45049;SDS011;61798;48.048;-1.928;2022-12-18T03:41:14;46.92;;;26.17;;
45049;SDS011;61798;48.048;-1.928;2022-12-18T03:46:15;47.40;;;24.83;;
45049;SDS011;61798;48.048;-1.928;2022-12-18T03:48:28;47.42;;;25.08;;
45049;SDS011;61798;48.048;-1.928;2022-12-18T03:55:57;44.58;;;24.85;;
45049;SDS011;61798;48.048;-1.928;2022-12-18T03:58:07;43.95;;;24.05;;
45049;SDS011;61798;48.048;-1.928;2022-12-18T04:00:17;44.95;;;24.52;;
45049;SDS011;61798;48.048;-1.928;2022-12-18T04:02:27;43.95;;;24.25;;
45049;SDS011;61798;48.048;-1.928;2022-12-18T04:04:38;45.72;;;24.85;;
45049;SDS011;61798;48.048;-1.928;2022-12-18T04:06:47;44.15;;;24.38;;
45049;SDS011;61798;48.048;-1.928;2022-12-18T04:08:57;43.40;;;24.35;;
45049;SDS011;61798;48.048;-1.928;2022-12-18T04:11:05;44.20;;;24.15;;
45049;SDS011;61798;48.048;-1.928;2022-12-18T04:13:21;50.22;;;26.60;;
45049;SDS011;61798;48.048;-1.928;2022-12-18T04:15:31;43.75;;;24.17;;
45049;SDS011;61798;48.048;-1.928;2022-12-18T04:17:45;40.75;;;23.67;;
45049;SDS011;61798;48.048;-1.928;2022-12-18T04:19:55;42.88;;;23.40;;
45049;SDS011;61798;48.048;-1.928;2022-12-18T04:22:03;42.42;;;24.23;;
45049;SDS011;61798;48.048;-1.928;2022-12-18T04:24:11;41.35;;;24.67;;
45049;SDS011;61798;48.048;-1.928;2022-12-18T04:26:18;41.55;;;22.85;;
45049;SDS011;61798;48.048;-1.928;2022-12-18T04:28:26;44.83;;;23.38;;
45049;SDS011;61798;48.048;-1.928;2022-12-18T04:30:33;45.45;;;24.10;;
45049;SDS011;61798;48.048;-1.928;2022-12-18T04:32:44;45.88;;;23.88;;
45049;SDS011;61798;48.048;-1.928;2022-12-18T04:34:51;43.90;;;24.63;;
45049;SDS011;61798;48.048;-1.928;2022-12-18T04:37:02;48.05;;;24.17;;
45049;SDS011;61798;48.048;-1.928;2022-12-18T04:39:09;49.22;;;25.25;;
45049;SDS011;61798;48.048;-1.928;2022-12-18T04:41:15;44.72;;;24.15;;
45049;SDS011;61798;48.048;-1.928;2022-12-18T04:43:22;42.88;;;23.80;;
45049;SDS011;61798;48.048;-1.928;2022-12-18T04:45:33;41.85;;;24.25;;
45049;SDS011;61798;48.048;-1.928;2022-12-18T04:47:41;40.17;;;22.88;;
45049;SDS011;61798;48.048;-1.928;2022-12-18T04:49:49;50.00;;;26.65;;
45049;SDS011;61798;48.048;-1.928;2022-12-18T04:51:59;50.88;;;24.83;;
45049;SDS011;61798;48.048;-1.928;2022-12-18T04:54:07;53.88;;;26.27;;
45049;SDS011;61798;48.048;-1.928;2022-12-18T04:56:14;50.85;;;26.52;;
45049;SDS011;61798;48.048;-1.928;2022-12-18T04:58:23;48.92;;;25.13;;
45049;SDS011;61798;48.048;-1.928;2022-12-18T05:00:32;54.38;;;29.52;;
45049;SDS011;61798;48.048;-1.928;2022-12-18T05:02:40;66.55;;;33.08;;
45049;SDS011;61798;48.048;-1.928;2022-12-18T05:04:49;53.95;;;30.13;;
45049;SDS011;61798;48.048;-1.928;2022-12-18T05:06:56;68.50;;;36.92;;
45049;SDS011;61798;48.048;-1.928;2022-12-18T05:09:04;60.35;;;32.85;;
45049;SDS011;61798;48.048;-1.928;2022-12-18T05:11:12;58.53;;;31.67;;
45049;SDS011;61798;48.048;-1.928;2022-12-18T05:13:26;53.42;;;29.95;;
45049;SDS011;61798;48.048;-1.928;2022-12-18T05:15:34;70.35;;;38.90;;
45049;SDS011;61798;48.048;-1.928;2022-12-18T05:17:42;70.85;;;39.78;;
45049;SDS011;61798;48.048;-1.928;2022-12-18T05:19:50;55.90;;;32.15;;
45049;SDS011;61798;48.048;-1.928;2022-12-18T05:22:01;46.28;;;29.60;;
45049;SDS011;61798;48.048;-1.928;2022-12-18T05:24:08;41.15;;;24.48;;
45049;SDS011;61798;48.048;-1.928;2022-12-18T05:26:16;44.00;;;27.77;;
45049;SDS011;61798;48.048;-1.928;2022-12-18T05:28:25;46.58;;;29.48;;
45049;SDS011;61798;48.048;-1.928;2022-12-18T05:30:34;49.53;;;30.13;;
45049;SDS011;61798;48.048;-1.928;2022-12-18T05:32:44;43.10;;;26.10;;
45049;SDS011;61798;48.048;-1.928;2022-12-18T05:35:00;43.05;;;25.45;;
45049;SDS011;61798;48.048;-1.928;2022-12-18T05:37:09;38.80;;;23.92;;
45049;SDS011;61798;48.048;-1.928;2022-12-18T05:39:16;46.90;;;26.65;;
45049;SDS011;61798;48.048;-1.928;2022-12-18T05:41:24;44.88;;;26.48;;
45049;SDS011;61798;48.048;-1.928;2022-12-18T05:43:33;46.15;;;25.55;;
45049;SDS011;61798;48.048;-1.928;2022-12-18T05:45:41;46.58;;;27.17;;
45049;SDS011;61798;48.048;-1.928;2022-12-18T05:47:47;41.53;;;24.75;;
45049;SDS011;61798;48.048;-1.928;2022-12-18T05:49:56;44.65;;;26.15;;
45049;SDS011;61798;48.048;-1.928;2022-12-18T05:52:03;42.38;;;24.90;;
45049;SDS011;61798;48.048;-1.928;2022-12-18T05:54:12;40.30;;;23.98;;
45049;SDS011;61798;48.048;-1.928;2022-12-18T05:56:20;41.83;;;24.30;;
45049;SDS011;61798;48.048;-1.928;2022-12-18T05:58:30;42.17;;;24.38;;
45049;SDS011;61798;48.048;-1.928;2022-12-18T06:00:39;43.75;;;24.40;;
45049;SDS011;61798;48.048;-1.928;2022-12-18T06:02:48;42.70;;;24.75;;
45049;SDS011;61798;48.048;-1.928;2022-12-18T06:04:56;41.17;;;24.85;;
45049;SDS011;61798;48.048;-1.928;2022-12-18T06:07:05;42.88;;;24.85;;
45049;SDS011;61798;48.048;-1.928;2022-12-18T06:09:14;49.65;;;27.25;;
45049;SDS011;61798;48.048;-1.928;2022-12-18T06:11:23;42.33;;;25.38;;
45049;SDS011;61798;48.048;-1.928;2022-12-18T06:13:32;42.65;;;24.58;;
45049;SDS011;61798;48.048;-1.928;2022-12-18T06:15:39;41.70;;;23.73;;
45049;SDS011;61798;48.048;-1.928;2022-12-18T06:17:50;39.00;;;23.52;;
45049;SDS011;61798;48.048;-1.928;2022-12-18T06:19:58;41.28;;;24.88;;
45049;SDS011;61798;48.048;-1.928;2022-12-18T06:22:08;38.60;;;23.67;;
45049;SDS011;61798;48.048;-1.928;2022-12-18T06:24:18;42.40;;;24.05;;
45049;SDS011;61798;48.048;-1.928;2022-12-18T06:26:25;42.95;;;24.50;;
45049;SDS011;61798;48.048;-1.928;2022-12-18T06:28:34;42.40;;;25.17;;
45049;SDS011;61798;48.048;-1.928;2022-12-18T06:30:44;37.72;;;23.02;;
45049;SDS011;61798;48.048;-1.928;2022-12-18T06:32:53;43.47;;;24.60;;
45049;SDS011;61798;48.048;-1.928;2022-12-18T06:35:00;42.40;;;25.00;;
45049;SDS011;61798;48.048;-1.928;2022-12-18T06:37:07;38.28;;;23.70;;
45049;SDS011;61798;48.048;-1.928;2022-12-18T06:39:15;40.42;;;23.65;;
45049;SDS011;61798;48.048;-1.928;2022-12-18T06:41:26;41.28;;;24.88;;
45049;SDS011;61798;48.048;-1.928;2022-12-18T06:43:34;36.20;;;21.55;;
45049;SDS011;61798;48.048;-1.928;2022-12-18T06:45:41;41.90;;;23.55;;
45049;SDS011;61798;48.048;-1.928;2022-12-18T06:47:49;44.00;;;23.75;;
45049;SDS011;61798;48.048;-1.928;2022-12-18T06:49:57;38.17;;;23.17;;
45049;SDS011;61798;48.048;-1.928;2022-12-18T06:52:06;40.92;;;23.20;;
45049;SDS011;61798;48.048;-1.928;2022-12-18T06:54:12;40.15;;;24.17;;
45049;SDS011;61798;48.048;-1.928;2022-12-18T06:56:19;41.15;;;23.77;;
45049;SDS011;61798;48.048;-1.928;2022-12-18T06:58:27;37.85;;;23.35;;
45049;SDS011;61798;48.048;-1.928;2022-12-18T07:00:34;38.33;;;22.60;;
45049;SDS011;61798;48.048;-1.928;2022-12-18T07:02:43;37.95;;;22.98;;
45049;SDS011;61798;48.048;-1.928;2022-12-18T07:04:51;37.17;;;22.77;;
45049;SDS011;61798;48.048;-1.928;2022-12-18T07:06:58;41.00;;;24.55;;
45049;SDS011;61798;48.048;-1.928;2022-12-18T07:09:07;39.92;;;23.52;;
45049;SDS011;61798;48.048;-1.928;2022-12-18T07:11:15;40.88;;;23.48;;
45049;SDS011;61798;48.048;-1.928;2022-12-18T07:13:25;41.65;;;23.25;;
45049;SDS011;61798;48.048;-1.928;2022-12-18T07:15:35;39.25;;;22.58;;
45049;SDS011;61798;48.048;-1.928;2022-12-18T07:17:42;42.40;;;23.15;;
45049;SDS011;61798;48.048;-1.928;2022-12-18T07:19:50;41.13;;;22.90;;
45049;SDS011;61798;48.048;-1.928;2022-12-18T07:22:01;42.17;;;22.90;;
45049;SDS011;61798;48.048;-1.928;2022-12-18T07:24:09;39.80;;;22.80;;
45049;SDS011;61798;48.048;-1.928;2022-12-18T07:26:20;40.63;;;23.70;;
45049;SDS011;61798;48.048;-1.928;2022-12-18T07:28:33;38.58;;;24.40;;
45049;SDS011;61798;48.048;-1.928;2022-12-18T07:30:42;43.40;;;24.88;;
45049;SDS011;61798;48.048;-1.928;2022-12-18T07:32:50;44.15;;;25.00;;
45049;SDS011;61798;48.048;-1.928;2022-12-18T07:34:58;46.25;;;24.85;;
45049;SDS011;61798;48.048;-1.928;2022-12-18T07:37:09;43.75;;;23.77;;
45049;SDS011;61798;48.048;-1.928;2022-12-18T07:39:16;45.97;;;25.90;;
45049;SDS011;61798;48.048;-1.928;2022-12-18T07:41:29;41.88;;;23.63;;
45049;SDS011;61798;48.048;-1.928;2022-12-18T07:43:36;40.83;;;21.92;;
45049;SDS011;61798;48.048;-1.928;2022-12-18T07:45:50;43.95;;;22.38;;
45049;SDS011;61798;48.048;-1.928;2022-12-18T07:48:00;47.85;;;23.67;;
45049;SDS011;61798;48.048;-1.928;2022-12-18T07:50:17;63.95;;;32.17;;
45049;SDS011;61798;48.048;-1.928;2022-12-18T07:52:35;55.92;;;29.75;;
45049;SDS011;61798;48.048;-1.928;2022-12-18T07:54:56;46.78;;;26.15;;
45049;SDS011;61798;48.048;-1.928;2022-12-18T07:57:17;51.15;;;28.05;;
45049;SDS011;61798;48.048;-1.928;2022-12-18T07:59:46;51.78;;;26.95;;
45049;SDS011;61798;48.048;-1.928;2022-12-18T08:01:55;45.78;;;22.98;;
45049;SDS011;61798;48.048;-1.928;2022-12-18T08:44:54;55.38;;;27.73;;
45049;SDS011;61798;48.048;-1.928;2022-12-18T09:35:15;58.80;;;26.98;;
45049;SDS011;61798;48.048;-1.928;2022-12-18T13:20:11;45.15;;;23.45;;
45049;SDS011;61798;48.048;-1.928;2022-12-18T13:26:27;46.55;;;23.25;;
45049;SDS011;61798;48.048;-1.928;2022-12-18T16:45:53;27.80;;;15.95;;
45049;SDS011;61798;48.048;-1.928;2022-12-18T16:57:16;30.80;;;15.85;;
45049;SDS011;61798;48.048;-1.928;2022-12-18T17:09:36;23.90;;;14.90;;
45049;SDS011;61798;48.048;-1.928;2022-12-18T17:16:17;31.35;;;15.48;;
45049;SDS011;61798;48.048;-1.928;2022-12-18T17:18:52;28.88;;;14.68;;
45049;SDS011;61798;48.048;-1.928;2022-12-18T17:21:36;26.92;;;15.02;;
45049;SDS011;61798;48.048;-1.928;2022-12-18T17:24:33;32.75;;;14.95;;
45049;SDS011;61798;48.048;-1.928;2022-12-18T17:27:32;28.90;;;14.05;;
45049;SDS011;61798;48.048;-1.928;2022-12-18T17:30:14;24.45;;;13.93;;
45049;SDS011;61798;48.048;-1.928;2022-12-18T17:33:01;32.15;;;14.32;;
45049;SDS011;61798;48.048;-1.928;2022-12-18T17:36:28;25.73;;;12.90;;
45049;SDS011;61798;48.048;-1.928;2022-12-18T17:42:59;28.85;;;12.77;;
45049;SDS011;61798;48.048;-1.928;2022-12-18T17:49:29;27.27;;;13.30;;
45049;SDS011;61798;48.048;-1.928;2022-12-18T18:17:45;25.15;;;11.77;;
